sensor_id;sensor_type;location;lat;lon;timestamp;temperature;humidity
8231;DHT22;4156;50.908;6.974;2023-11-21T00:00:16;11.10;99.90
8231;DHT22;4156;50.908;6.974;2023-11-21T00:02:43;11.10;99.90
8231;DHT22;4156;50.908;6.974;2023-11-21T00:05:10;11.10;99.90
8231;DHT22;4156;50.908;6.974;2023-11-21T00:07:38;11.10;99.90
8231;DHT22;4156;50.908;6.974;2023-11-21T00:10:04;11.10;99.90
8231;DHT22;4156;50.908;6.974;2023-11-21T00:12:31;11.10;99.90
8231;DHT22;4156;50.908;6.974;2023-11-21T00:14:57;11.10;99.90
8231;DHT22;4156;50.908;6.974;2023-11-21T00:17:23;11.10;99.90
8231;DHT22;4156;50.908;6.974;2023-11-21T00:19:48;11.10;99.90
8231;DHT22;4156;50.908;6.974;2023-11-21T00:22:14;11.10;99.90
8231;DHT22;4156;50.908;6.974;2023-11-21T00:24:41;11.10;99.90
8231;DHT22;4156;50.908;6.974;2023-11-21T00:27:07;11.10;99.90
8231;DHT22;4156;50.908;6.974;2023-11-21T00:29:32;11.10;99.90
8231;DHT22;4156;50.908;6.974;2023-11-21T00:31:58;11.10;99.90
8231;DHT22;4156;50.908;6.974;2023-11-21T00:34:23;11.10;99.90
8231;DHT22;4156;50.908;6.974;2023-11-21T00:36:49;11.20;99.90
8231;DHT22;4156;50.908;6.974;2023-11-21T00:39:14;11.20;99.90
8231;DHT22;4156;50.908;6.974;2023-11-21T00:41:41;11.10;99.90
8231;DHT22;4156;50.908;6.974;2023-11-21T00:44:07;11.10;99.90
8231;DHT22;4156;50.908;6.974;2023-11-21T00:46:33;11.10;99.90
8231;DHT22;4156;50.908;6.974;2023-11-21T00:48:58;11.10;99.90
8231;DHT22;4156;50.908;6.974;2023-11-21T00:51:24;11.00;99.90
8231;DHT22;4156;50.908;6.974;2023-11-21T00:53:50;11.10;99.90
8231;DHT22;4156;50.908;6.974;2023-11-21T00:56:15;11.10;99.90
8231;DHT22;4156;50.908;6.974;2023-11-21T00:58:41;11.10;99.90
8231;DHT22;4156;50.908;6.974;2023-11-21T01:01:14;11.00;99.90
8231;DHT22;4156;50.908;6.974;2023-11-21T01:03:40;11.00;99.90
8231;DHT22;4156;50.908;6.974;2023-11-21T01:06:06;11.00;99.90
8231;DHT22;4156;50.908;6.974;2023-11-21T01:08:33;11.00;99.90
8231;DHT22;4156;50.908;6.974;2023-11-21T01:10:58;11.10;99.90
8231;DHT22;4156;50.908;6.974;2023-11-21T01:13:24;11.00;99.90
8231;DHT22;4156;50.908;6.974;2023-11-21T01:15:54;11.00;99.90
8231;DHT22;4156;50.908;6.974;2023-11-21T01:18:19;11.00;99.90
8231;DHT22;4156;50.908;6.974;2023-11-21T01:20:45;11.10;99.90
8231;DHT22;4156;50.908;6.974;2023-11-21T01:23:12;11.10;99.90
8231;DHT22;4156;50.908;6.974;2023-11-21T01:25:38;11.00;99.90
8231;DHT22;4156;50.908;6.974;2023-11-21T01:28:03;11.00;99.90
8231;DHT22;4156;50.908;6.974;2023-11-21T01:30:29;11.00;99.90
8231;DHT22;4156;50.908;6.974;2023-11-21T01:32:54;11.00;99.90
8231;DHT22;4156;50.908;6.974;2023-11-21T01:35:20;11.00;99.90
8231;DHT22;4156;50.908;6.974;2023-11-21T01:37:46;10.90;99.90
8231;DHT22;4156;50.908;6.974;2023-11-21T01:40:13;10.90;99.90
8231;DHT22;4156;50.908;6.974;2023-11-21T01:42:40;10.90;99.90
8231;DHT22;4156;50.908;6.974;2023-11-21T01:45:06;10.90;99.90
8231;DHT22;4156;50.908;6.974;2023-11-21T01:47:34;10.90;99.90
8231;DHT22;4156;50.908;6.974;2023-11-21T01:50:02;10.90;99.90
8231;DHT22;4156;50.908;6.974;2023-11-21T01:52:30;10.90;99.90
8231;DHT22;4156;50.908;6.974;2023-11-21T01:54:55;10.90;99.90
8231;DHT22;4156;50.908;6.974;2023-11-21T01:57:22;10.90;99.90
8231;DHT22;4156;50.908;6.974;2023-11-21T01:59:48;10.90;99.90
8231;DHT22;4156;50.908;6.974;2023-11-21T02:02:15;10.90;99.90
8231;DHT22;4156;50.908;6.974;2023-11-21T02:04:42;10.90;99.90
8231;DHT22;4156;50.908;6.974;2023-11-21T02:07:07;10.80;99.90
8231;DHT22;4156;50.908;6.974;2023-11-21T02:09:33;10.80;99.90
8231;DHT22;4156;50.908;6.974;2023-11-21T02:12:00;10.80;99.90
8231;DHT22;4156;50.908;6.974;2023-11-21T02:14:26;10.80;99.90
8231;DHT22;4156;50.908;6.974;2023-11-21T02:16:54;10.80;99.90
8231;DHT22;4156;50.908;6.974;2023-11-21T02:19:21;10.80;99.90
8231;DHT22;4156;50.908;6.974;2023-11-21T02:21:52;10.80;99.90
8231;DHT22;4156;50.908;6.974;2023-11-21T02:24:21;10.80;99.90
8231;DHT22;4156;50.908;6.974;2023-11-21T02:26:50;10.80;99.90
8231;DHT22;4156;50.908;6.974;2023-11-21T02:29:20;10.80;99.90
8231;DHT22;4156;50.908;6.974;2023-11-21T02:31:48;10.70;99.90
8231;DHT22;4156;50.908;6.974;2023-11-21T02:34:15;10.80;99.90
8231;DHT22;4156;50.908;6.974;2023-11-21T02:36:41;10.80;99.90
8231;DHT22;4156;50.908;6.974;2023-11-21T02:39:08;10.80;99.90
8231;DHT22;4156;50.908;6.974;2023-11-21T02:41:34;10.80;99.90
8231;DHT22;4156;50.908;6.974;2023-11-21T02:44:00;10.80;99.90
8231;DHT22;4156;50.908;6.974;2023-11-21T02:46:26;10.70;99.90
8231;DHT22;4156;50.908;6.974;2023-11-21T02:48:52;10.70;99.90
8231;DHT22;4156;50.908;6.974;2023-11-21T02:51:19;10.70;99.90
8231;DHT22;4156;50.908;6.974;2023-11-21T02:53:45;10.70;99.90
8231;DHT22;4156;50.908;6.974;2023-11-21T02:56:12;10.70;99.90
8231;DHT22;4156;50.908;6.974;2023-11-21T02:58:40;10.70;99.90
8231;DHT22;4156;50.908;6.974;2023-11-21T03:01:06;10.70;99.90
8231;DHT22;4156;50.908;6.974;2023-11-21T03:03:33;10.70;99.90
8231;DHT22;4156;50.908;6.974;2023-11-21T03:05:58;10.70;99.90
8231;DHT22;4156;50.908;6.974;2023-11-21T03:08:24;10.80;99.90
8231;DHT22;4156;50.908;6.974;2023-11-21T03:10:50;10.80;99.90
8231;DHT22;4156;50.908;6.974;2023-11-21T03:13:15;10.70;99.90
8231;DHT22;4156;50.908;6.974;2023-11-21T03:15:43;10.70;99.90
8231;DHT22;4156;50.908;6.974;2023-11-21T03:18:08;10.70;99.90
8231;DHT22;4156;50.908;6.974;2023-11-21T03:20:34;10.70;99.90
8231;DHT22;4156;50.908;6.974;2023-11-21T03:23:00;10.60;99.90
8231;DHT22;4156;50.908;6.974;2023-11-21T03:25:26;10.70;99.90
8231;DHT22;4156;50.908;6.974;2023-11-21T03:27:52;10.70;99.90
8231;DHT22;4156;50.908;6.974;2023-11-21T03:30:18;10.70;99.90
8231;DHT22;4156;50.908;6.974;2023-11-21T03:32:44;10.70;99.90
8231;DHT22;4156;50.908;6.974;2023-11-21T03:35:10;10.70;99.90
8231;DHT22;4156;50.908;6.974;2023-11-21T03:37:35;10.70;99.90
8231;DHT22;4156;50.908;6.974;2023-11-21T03:40:01;10.70;99.90
8231;DHT22;4156;50.908;6.974;2023-11-21T03:42:29;10.70;99.90
8231;DHT22;4156;50.908;6.974;2023-11-21T03:44:54;10.70;99.90
8231;DHT22;4156;50.908;6.974;2023-11-21T03:47:20;10.70;99.90
8231;DHT22;4156;50.908;6.974;2023-11-21T03:49:46;10.70;99.90
8231;DHT22;4156;50.908;6.974;2023-11-21T03:52:11;10.70;99.90
8231;DHT22;4156;50.908;6.974;2023-11-21T03:54:37;10.70;99.90
8231;DHT22;4156;50.908;6.974;2023-11-21T03:57:03;10.70;99.90
8231;DHT22;4156;50.908;6.974;2023-11-21T03:59:29;10.70;99.90
8231;DHT22;4156;50.908;6.974;2023-11-21T04:01:57;10.70;99.90
8231;DHT22;4156;50.908;6.974;2023-11-21T04:04:23;10.70;99.90
8231;DHT22;4156;50.908;6.974;2023-11-21T04:06:49;10.60;99.90
8231;DHT22;4156;50.908;6.974;2023-11-21T04:09:14;10.60;99.90
8231;DHT22;4156;50.908;6.974;2023-11-21T04:11:40;10.60;99.90
8231;DHT22;4156;50.908;6.974;2023-11-21T04:14:05;10.60;99.90
8231;DHT22;4156;50.908;6.974;2023-11-21T04:16:31;10.60;99.90
8231;DHT22;4156;50.908;6.974;2023-11-21T04:18:56;10.60;99.90
8231;DHT22;4156;50.908;6.974;2023-11-21T04:21:22;10.60;99.90
8231;DHT22;4156;50.908;6.974;2023-11-21T04:23:49;10.50;99.90
8231;DHT22;4156;50.908;6.974;2023-11-21T04:26:15;10.60;99.90
8231;DHT22;4156;50.908;6.974;2023-11-21T04:28:41;10.60;99.90
8231;DHT22;4156;50.908;6.974;2023-11-21T04:31:06;10.60;99.90
8231;DHT22;4156;50.908;6.974;2023-11-21T04:33:32;10.60;99.90
8231;DHT22;4156;50.908;6.974;2023-11-21T04:35:58;10.60;99.90
8231;DHT22;4156;50.908;6.974;2023-11-21T04:38:23;10.60;99.90
8231;DHT22;4156;50.908;6.974;2023-11-21T04:40:49;10.60;99.90
8231;DHT22;4156;50.908;6.974;2023-11-21T04:43:15;10.60;99.90
8231;DHT22;4156;50.908;6.974;2023-11-21T04:45:40;10.60;99.90
8231;DHT22;4156;50.908;6.974;2023-11-21T04:48:07;10.60;99.90
8231;DHT22;4156;50.908;6.974;2023-11-21T04:50:33;10.60;99.90
8231;DHT22;4156;50.908;6.974;2023-11-21T04:52:59;10.60;99.90
8231;DHT22;4156;50.908;6.974;2023-11-21T04:55:24;10.60;99.90
8231;DHT22;4156;50.908;6.974;2023-11-21T04:57:53;10.50;99.90
8231;DHT22;4156;50.908;6.974;2023-11-21T05:00:19;10.50;99.90
8231;DHT22;4156;50.908;6.974;2023-11-21T05:02:46;10.50;99.90
8231;DHT22;4156;50.908;6.974;2023-11-21T05:05:12;10.50;99.90
8231;DHT22;4156;50.908;6.974;2023-11-21T05:07:40;10.50;99.90
8231;DHT22;4156;50.908;6.974;2023-11-21T05:10:07;10.50;99.90
8231;DHT22;4156;50.908;6.974;2023-11-21T05:12:35;10.50;99.90
8231;DHT22;4156;50.908;6.974;2023-11-21T05:15:04;10.50;99.90
8231;DHT22;4156;50.908;6.974;2023-11-21T05:17:33;10.50;99.90
8231;DHT22;4156;50.908;6.974;2023-11-21T05:19:59;10.60;99.90
8231;DHT22;4156;50.908;6.974;2023-11-21T05:22:29;10.50;99.90
8231;DHT22;4156;50.908;6.974;2023-11-21T05:24:54;10.60;99.90
8231;DHT22;4156;50.908;6.974;2023-11-21T05:27:20;10.60;99.90
8231;DHT22;4156;50.908;6.974;2023-11-21T05:29:45;10.50;99.90
8231;DHT22;4156;50.908;6.974;2023-11-21T05:32:11;10.50;99.90
8231;DHT22;4156;50.908;6.974;2023-11-21T05:34:37;10.50;99.90
8231;DHT22;4156;50.908;6.974;2023-11-21T05:37:02;10.50;99.90
8231;DHT22;4156;50.908;6.974;2023-11-21T05:39:28;10.60;99.90
8231;DHT22;4156;50.908;6.974;2023-11-21T05:41:53;10.50;99.90
8231;DHT22;4156;50.908;6.974;2023-11-21T05:44:19;10.50;99.90
8231;DHT22;4156;50.908;6.974;2023-11-21T05:46:44;10.50;99.90
8231;DHT22;4156;50.908;6.974;2023-11-21T05:49:10;10.50;99.90
8231;DHT22;4156;50.908;6.974;2023-11-21T05:51:37;10.50;99.90
8231;DHT22;4156;50.908;6.974;2023-11-21T05:54:03;10.50;99.90
8231;DHT22;4156;50.908;6.974;2023-11-21T05:56:28;10.40;99.90
8231;DHT22;4156;50.908;6.974;2023-11-21T05:58:54;10.50;99.90
8231;DHT22;4156;50.908;6.974;2023-11-21T06:01:20;10.50;99.90
8231;DHT22;4156;50.908;6.974;2023-11-21T06:03:45;10.40;99.90
8231;DHT22;4156;50.908;6.974;2023-11-21T06:06:11;10.40;99.90
8231;DHT22;4156;50.908;6.974;2023-11-21T06:08:36;10.40;99.90
8231;DHT22;4156;50.908;6.974;2023-11-21T06:11:02;10.40;99.90
8231;DHT22;4156;50.908;6.974;2023-11-21T06:13:27;10.40;99.90
8231;DHT22;4156;50.908;6.974;2023-11-21T06:15:53;10.50;99.90
8231;DHT22;4156;50.908;6.974;2023-11-21T06:18:19;10.60;99.90
8231;DHT22;4156;50.908;6.974;2023-11-21T06:20:45;10.60;99.90
8231;DHT22;4156;50.908;6.974;2023-11-21T06:23:11;10.60;99.90
8231;DHT22;4156;50.908;6.974;2023-11-21T06:25:37;10.50;99.90
8231;DHT22;4156;50.908;6.974;2023-11-21T06:28:02;10.60;99.90
8231;DHT22;4156;50.908;6.974;2023-11-21T06:30:28;10.50;99.90
8231;DHT22;4156;50.908;6.974;2023-11-21T06:32:54;10.50;99.90
8231;DHT22;4156;50.908;6.974;2023-11-21T06:35:21;10.50;99.90
8231;DHT22;4156;50.908;6.974;2023-11-21T06:37:47;10.50;99.90
8231;DHT22;4156;50.908;6.974;2023-11-21T06:40:18;10.40;99.90
8231;DHT22;4156;50.908;6.974;2023-11-21T06:42:44;10.40;99.90
8231;DHT22;4156;50.908;6.974;2023-11-21T06:45:10;10.40;99.90
8231;DHT22;4156;50.908;6.974;2023-11-21T06:47:36;10.40;99.90
8231;DHT22;4156;50.908;6.974;2023-11-21T06:50:03;10.50;99.90
8231;DHT22;4156;50.908;6.974;2023-11-21T06:52:29;10.60;99.90
8231;DHT22;4156;50.908;6.974;2023-11-21T06:54:55;10.70;99.90
8231;DHT22;4156;50.908;6.974;2023-11-21T06:57:20;10.80;99.90
8231;DHT22;4156;50.908;6.974;2023-11-21T06:59:48;10.80;99.90
8231;DHT22;4156;50.908;6.974;2023-11-21T07:02:13;10.90;99.90
8231;DHT22;4156;50.908;6.974;2023-11-21T07:04:39;10.90;99.90
8231;DHT22;4156;50.908;6.974;2023-11-21T07:07:06;10.90;99.90
8231;DHT22;4156;50.908;6.974;2023-11-21T07:09:34;10.90;99.90
8231;DHT22;4156;50.908;6.974;2023-11-21T07:12:00;10.70;99.90
8231;DHT22;4156;50.908;6.974;2023-11-21T07:14:26;10.70;99.90
8231;DHT22;4156;50.908;6.974;2023-11-21T07:16:52;10.60;99.90
8231;DHT22;4156;50.908;6.974;2023-11-21T07:19:18;10.60;99.90
8231;DHT22;4156;50.908;6.974;2023-11-21T07:21:43;10.60;99.90
8231;DHT22;4156;50.908;6.974;2023-11-21T07:24:09;10.60;99.90
8231;DHT22;4156;50.908;6.974;2023-11-21T07:26:35;10.60;99.90
8231;DHT22;4156;50.908;6.974;2023-11-21T07:29:01;10.70;99.90
8231;DHT22;4156;50.908;6.974;2023-11-21T07:31:27;10.60;99.90
8231;DHT22;4156;50.908;6.974;2023-11-21T07:33:54;10.60;99.90
8231;DHT22;4156;50.908;6.974;2023-11-21T07:36:20;10.50;99.90
8231;DHT22;4156;50.908;6.974;2023-11-21T07:38:48;10.60;99.90
8231;DHT22;4156;50.908;6.974;2023-11-21T07:41:14;10.60;99.90
8231;DHT22;4156;50.908;6.974;2023-11-21T07:43:43;10.60;99.90
8231;DHT22;4156;50.908;6.974;2023-11-21T07:46:09;10.60;99.90
8231;DHT22;4156;50.908;6.974;2023-11-21T07:48:35;10.60;99.90
8231;DHT22;4156;50.908;6.974;2023-11-21T07:51:02;10.60;99.90
8231;DHT22;4156;50.908;6.974;2023-11-21T07:53:32;10.60;99.90
8231;DHT22;4156;50.908;6.974;2023-11-21T07:56:02;10.60;99.90
8231;DHT22;4156;50.908;6.974;2023-11-21T07:58:28;10.50;99.90
8231;DHT22;4156;50.908;6.974;2023-11-21T08:00:54;10.50;99.90
8231;DHT22;4156;50.908;6.974;2023-11-21T08:03:19;10.50;99.90
8231;DHT22;4156;50.908;6.974;2023-11-21T08:05:45;10.50;99.90
8231;DHT22;4156;50.908;6.974;2023-11-21T08:08:10;10.50;99.90
8231;DHT22;4156;50.908;6.974;2023-11-21T08:10:36;10.50;99.90
8231;DHT22;4156;50.908;6.974;2023-11-21T08:13:03;10.60;99.90
8231;DHT22;4156;50.908;6.974;2023-11-21T08:15:29;10.60;99.90
8231;DHT22;4156;50.908;6.974;2023-11-21T08:17:57;10.60;99.90
8231;DHT22;4156;50.908;6.974;2023-11-21T08:20:24;10.60;99.90
8231;DHT22;4156;50.908;6.974;2023-11-21T08:22:50;10.60;99.90
8231;DHT22;4156;50.908;6.974;2023-11-21T08:25:17;10.60;99.90
8231;DHT22;4156;50.908;6.974;2023-11-21T08:27:45;10.60;99.90
8231;DHT22;4156;50.908;6.974;2023-11-21T08:30:11;10.60;99.90
8231;DHT22;4156;50.908;6.974;2023-11-21T08:32:37;10.70;99.90
8231;DHT22;4156;50.908;6.974;2023-11-21T08:35:03;10.70;99.90
8231;DHT22;4156;50.908;6.974;2023-11-21T08:37:29;10.70;99.90
8231;DHT22;4156;50.908;6.974;2023-11-21T08:39:58;10.60;99.90
8231;DHT22;4156;50.908;6.974;2023-11-21T08:42:25;10.60;99.90
8231;DHT22;4156;50.908;6.974;2023-11-21T08:44:50;10.70;99.90
8231;DHT22;4156;50.908;6.974;2023-11-21T08:47:16;10.70;99.90
8231;DHT22;4156;50.908;6.974;2023-11-21T08:49:42;10.60;99.90
8231;DHT22;4156;50.908;6.974;2023-11-21T08:52:07;10.70;99.90
8231;DHT22;4156;50.908;6.974;2023-11-21T08:54:33;10.70;99.90
8231;DHT22;4156;50.908;6.974;2023-11-21T08:56:59;10.70;99.90
8231;DHT22;4156;50.908;6.974;2023-11-21T08:59:26;10.70;99.90
8231;DHT22;4156;50.908;6.974;2023-11-21T09:01:51;10.70;99.90
8231;DHT22;4156;50.908;6.974;2023-11-21T09:04:17;10.70;99.90
8231;DHT22;4156;50.908;6.974;2023-11-21T09:06:43;10.70;99.90
8231;DHT22;4156;50.908;6.974;2023-11-21T09:09:08;10.70;99.90
8231;DHT22;4156;50.908;6.974;2023-11-21T09:11:36;10.70;99.90
8231;DHT22;4156;50.908;6.974;2023-11-21T09:14:02;10.70;99.90
8231;DHT22;4156;50.908;6.974;2023-11-21T09:16:28;10.70;99.90
8231;DHT22;4156;50.908;6.974;2023-11-21T09:18:54;10.70;99.90
8231;DHT22;4156;50.908;6.974;2023-11-21T09:21:20;10.70;99.90
8231;DHT22;4156;50.908;6.974;2023-11-21T09:23:45;10.70;99.90
8231;DHT22;4156;50.908;6.974;2023-11-21T09:26:11;10.70;99.90
8231;DHT22;4156;50.908;6.974;2023-11-21T09:28:37;10.70;99.90
8231;DHT22;4156;50.908;6.974;2023-11-21T09:31:05;10.70;99.90
8231;DHT22;4156;50.908;6.974;2023-11-21T09:33:30;10.70;99.90
8231;DHT22;4156;50.908;6.974;2023-11-21T09:35:57;10.70;99.90
8231;DHT22;4156;50.908;6.974;2023-11-21T09:38:23;10.70;99.90
8231;DHT22;4156;50.908;6.974;2023-11-21T09:40:49;10.70;99.90
8231;DHT22;4156;50.908;6.974;2023-11-21T09:43:18;10.70;99.90
8231;DHT22;4156;50.908;6.974;2023-11-21T09:45:48;10.70;99.90
8231;DHT22;4156;50.908;6.974;2023-11-21T09:48:20;10.70;99.90
8231;DHT22;4156;50.908;6.974;2023-11-21T09:50:47;10.70;99.90
8231;DHT22;4156;50.908;6.974;2023-11-21T09:53:21;10.80;99.90
8231;DHT22;4156;50.908;6.974;2023-11-21T09:55:50;10.80;99.90
8231;DHT22;4156;50.908;6.974;2023-11-21T09:58:16;10.80;99.90
8231;DHT22;4156;50.908;6.974;2023-11-21T10:00:47;10.80;99.90
8231;DHT22;4156;50.908;6.974;2023-11-21T10:03:14;10.80;99.90
8231;DHT22;4156;50.908;6.974;2023-11-21T10:05:42;10.80;99.90
8231;DHT22;4156;50.908;6.974;2023-11-21T10:08:13;10.80;99.90
8231;DHT22;4156;50.908;6.974;2023-11-21T10:10:49;10.80;99.90
8231;DHT22;4156;50.908;6.974;2023-11-21T10:13:22;10.80;99.90
8231;DHT22;4156;50.908;6.974;2023-11-21T10:15:50;10.80;99.90
8231;DHT22;4156;50.908;6.974;2023-11-21T10:18:41;10.80;99.90
8231;DHT22;4156;50.908;6.974;2023-11-21T10:21:19;10.80;99.90
8231;DHT22;4156;50.908;6.974;2023-11-21T10:23:47;10.90;99.90
8231;DHT22;4156;50.908;6.974;2023-11-21T10:26:26;10.90;99.90
8231;DHT22;4156;50.908;6.974;2023-11-21T10:29:18;10.90;99.90
8231;DHT22;4156;50.908;6.974;2023-11-21T10:31:52;10.90;99.90
8231;DHT22;4156;50.908;6.974;2023-11-21T10:34:27;10.90;99.90
8231;DHT22;4156;50.908;6.974;2023-11-21T10:36:55;10.90;99.90
8231;DHT22;4156;50.908;6.974;2023-11-21T10:39:28;11.00;99.90
8231;DHT22;4156;50.908;6.974;2023-11-21T10:45:50;11.00;99.90
8231;DHT22;4156;50.908;6.974;2023-11-21T10:51:49;11.00;99.90
8231;DHT22;4156;50.908;6.974;2023-11-21T10:54:39;11.00;99.90
8231;DHT22;4156;50.908;6.974;2023-11-21T10:57:32;11.00;99.90
8231;DHT22;4156;50.908;6.974;2023-11-21T11:00:01;10.90;99.90
8231;DHT22;4156;50.908;6.974;2023-11-21T11:02:32;10.90;99.90
8231;DHT22;4156;50.908;6.974;2023-11-21T11:05:09;10.90;99.90
8231;DHT22;4156;50.908;6.974;2023-11-21T11:07:44;10.90;99.90
8231;DHT22;4156;50.908;6.974;2023-11-21T11:10:19;11.00;99.90
8231;DHT22;4156;50.908;6.974;2023-11-21T11:13:09;11.00;99.90
8231;DHT22;4156;50.908;6.974;2023-11-21T11:15:59;11.00;99.90
8231;DHT22;4156;50.908;6.974;2023-11-21T11:18:31;11.00;99.90
8231;DHT22;4156;50.908;6.974;2023-11-21T11:21:11;11.00;99.90
8231;DHT22;4156;50.908;6.974;2023-11-21T11:24:13;11.00;99.90
8231;DHT22;4156;50.908;6.974;2023-11-21T11:33:42;11.00;99.90
8231;DHT22;4156;50.908;6.974;2023-11-21T11:38:46;11.00;99.90
8231;DHT22;4156;50.908;6.974;2023-11-21T11:41:28;11.00;99.90
8231;DHT22;4156;50.908;6.974;2023-11-21T11:43:57;11.10;99.90
8231;DHT22;4156;50.908;6.974;2023-11-21T11:46:42;11.10;99.90
8231;DHT22;4156;50.908;6.974;2023-11-21T11:49:32;11.10;99.90
8231;DHT22;4156;50.908;6.974;2023-11-21T11:55:04;11.00;99.90
8231;DHT22;4156;50.908;6.974;2023-11-21T11:58:01;11.10;99.90
8231;DHT22;4156;50.908;6.974;2023-11-21T12:02:59;11.10;99.90
8231;DHT22;4156;50.908;6.974;2023-11-21T12:05:30;11.10;99.90
8231;DHT22;4156;50.908;6.974;2023-11-21T12:08:01;11.20;99.90
8231;DHT22;4156;50.908;6.974;2023-11-21T12:10:43;11.20;99.90
8231;DHT22;4156;50.908;6.974;2023-11-21T12:13:17;11.20;99.90
8231;DHT22;4156;50.908;6.974;2023-11-21T12:15:47;11.20;99.90
8231;DHT22;4156;50.908;6.974;2023-11-21T12:18:21;11.20;99.90
8231;DHT22;4156;50.908;6.974;2023-11-21T12:21:10;11.20;99.90
8231;DHT22;4156;50.908;6.974;2023-11-21T12:23:48;11.20;99.90
8231;DHT22;4156;50.908;6.974;2023-11-21T12:26:14;11.20;99.90
8231;DHT22;4156;50.908;6.974;2023-11-21T12:28:55;11.20;99.90
8231;DHT22;4156;50.908;6.974;2023-11-21T12:31:40;11.20;99.90
8231;DHT22;4156;50.908;6.974;2023-11-21T12:34:16;11.20;99.90
8231;DHT22;4156;50.908;6.974;2023-11-21T12:36:51;11.20;99.90
8231;DHT22;4156;50.908;6.974;2023-11-21T12:39:20;11.20;99.90
8231;DHT22;4156;50.908;6.974;2023-11-21T12:41:51;11.30;99.90
8231;DHT22;4156;50.908;6.974;2023-11-21T12:44:21;11.20;99.90
8231;DHT22;4156;50.908;6.974;2023-11-21T12:46:49;11.20;99.90
8231;DHT22;4156;50.908;6.974;2023-11-21T12:49:15;11.20;99.90
8231;DHT22;4156;50.908;6.974;2023-11-21T12:51:47;11.20;99.90
8231;DHT22;4156;50.908;6.974;2023-11-21T12:54:17;11.30;99.90
8231;DHT22;4156;50.908;6.974;2023-11-21T12:56:46;11.30;99.90
8231;DHT22;4156;50.908;6.974;2023-11-21T12:59:21;11.30;99.90
8231;DHT22;4156;50.908;6.974;2023-11-21T13:01:54;11.30;99.90
8231;DHT22;4156;50.908;6.974;2023-11-21T13:04:30;11.30;99.90
8231;DHT22;4156;50.908;6.974;2023-11-21T13:07:04;11.30;99.90
8231;DHT22;4156;50.908;6.974;2023-11-21T13:09:39;11.30;99.90
8231;DHT22;4156;50.908;6.974;2023-11-21T13:12:07;11.30;99.90
8231;DHT22;4156;50.908;6.974;2023-11-21T13:14:37;11.30;99.90
8231;DHT22;4156;50.908;6.974;2023-11-21T13:17:06;11.30;99.90
8231;DHT22;4156;50.908;6.974;2023-11-21T13:19:36;11.30;99.90
8231;DHT22;4156;50.908;6.974;2023-11-21T13:22:03;11.20;99.90
8231;DHT22;4156;50.908;6.974;2023-11-21T13:24:33;11.20;99.90
8231;DHT22;4156;50.908;6.974;2023-11-21T13:27:06;11.20;99.90
8231;DHT22;4156;50.908;6.974;2023-11-21T13:30:19;11.20;99.90
8231;DHT22;4156;50.908;6.974;2023-11-21T13:37:14;11.20;99.90
8231;DHT22;4156;50.908;6.974;2023-11-21T13:53:50;11.30;99.90
8231;DHT22;4156;50.908;6.974;2023-11-21T14:00:16;11.30;99.90
8231;DHT22;4156;50.908;6.974;2023-11-21T14:03:41;11.30;99.90
8231;DHT22;4156;50.908;6.974;2023-11-21T14:06:53;11.30;99.90
8231;DHT22;4156;50.908;6.974;2023-11-21T14:09:26;11.30;99.90
8231;DHT22;4156;50.908;6.974;2023-11-21T14:12:05;11.30;99.90
8231;DHT22;4156;50.908;6.974;2023-11-21T14:21:04;11.30;99.90
8231;DHT22;4156;50.908;6.974;2023-11-21T14:23:48;11.40;99.90
8231;DHT22;4156;50.908;6.974;2023-11-21T14:26:42;11.40;99.90
8231;DHT22;4156;50.908;6.974;2023-11-21T14:29:47;11.40;99.90
8231;DHT22;4156;50.908;6.974;2023-11-21T14:32:40;11.40;99.90
8231;DHT22;4156;50.908;6.974;2023-11-21T14:35:46;11.30;99.90
8231;DHT22;4156;50.908;6.974;2023-11-21T14:39:10;11.40;99.90
8231;DHT22;4156;50.908;6.974;2023-11-21T14:42:09;11.40;99.90
8231;DHT22;4156;50.908;6.974;2023-11-21T14:44:52;11.40;99.90
8231;DHT22;4156;50.908;6.974;2023-11-21T14:47:48;11.40;99.90
8231;DHT22;4156;50.908;6.974;2023-11-21T14:50:49;11.40;99.90
8231;DHT22;4156;50.908;6.974;2023-11-21T14:53:54;11.80;99.90
8231;DHT22;4156;50.908;6.974;2023-11-21T14:56:52;11.40;99.90
8231;DHT22;4156;50.908;6.974;2023-11-21T14:59:20;11.40;99.90
8231;DHT22;4156;50.908;6.974;2023-11-21T15:01:45;11.40;99.90
8231;DHT22;4156;50.908;6.974;2023-11-21T15:04:23;11.40;99.90
8231;DHT22;4156;50.908;6.974;2023-11-21T15:07:03;11.40;99.90
8231;DHT22;4156;50.908;6.974;2023-11-21T15:09:29;11.40;99.90
8231;DHT22;4156;50.908;6.974;2023-11-21T15:11:59;11.40;99.90
8231;DHT22;4156;50.908;6.974;2023-11-21T15:14:47;11.40;99.90
8231;DHT22;4156;50.908;6.974;2023-11-21T15:17:15;11.40;99.90
8231;DHT22;4156;50.908;6.974;2023-11-21T15:19:56;11.40;99.90
8231;DHT22;4156;50.908;6.974;2023-11-21T15:22:22;11.40;99.90
8231;DHT22;4156;50.908;6.974;2023-11-21T15:24:48;11.40;99.90
8231;DHT22;4156;50.908;6.974;2023-11-21T15:27:15;11.40;99.90
8231;DHT22;4156;50.908;6.974;2023-11-21T15:29:41;11.40;99.90
8231;DHT22;4156;50.908;6.974;2023-11-21T15:32:07;11.40;99.90
8231;DHT22;4156;50.908;6.974;2023-11-21T15:34:34;11.40;99.90
8231;DHT22;4156;50.908;6.974;2023-11-21T15:36:59;11.40;99.90
8231;DHT22;4156;50.908;6.974;2023-11-21T15:39:25;11.40;99.90
8231;DHT22;4156;50.908;6.974;2023-11-21T15:41:54;11.40;99.90
8231;DHT22;4156;50.908;6.974;2023-11-21T15:44:20;11.40;99.90
8231;DHT22;4156;50.908;6.974;2023-11-21T15:46:46;11.40;99.90
8231;DHT22;4156;50.908;6.974;2023-11-21T15:49:13;11.40;99.90
8231;DHT22;4156;50.908;6.974;2023-11-21T15:51:42;11.40;99.90
8231;DHT22;4156;50.908;6.974;2023-11-21T15:54:09;11.40;99.90
8231;DHT22;4156;50.908;6.974;2023-11-21T15:56:34;11.30;99.90
8231;DHT22;4156;50.908;6.974;2023-11-21T15:59:00;11.40;99.90
8231;DHT22;4156;50.908;6.974;2023-11-21T16:01:26;11.40;99.90
8231;DHT22;4156;50.908;6.974;2023-11-21T16:03:52;11.40;99.90
8231;DHT22;4156;50.908;6.974;2023-11-21T16:06:18;11.40;99.90
8231;DHT22;4156;50.908;6.974;2023-11-21T16:08:44;11.50;99.90
8231;DHT22;4156;50.908;6.974;2023-11-21T16:11:09;11.50;99.90
8231;DHT22;4156;50.908;6.974;2023-11-21T16:13:36;11.50;99.90
8231;DHT22;4156;50.908;6.974;2023-11-21T16:16:01;11.50;99.90
8231;DHT22;4156;50.908;6.974;2023-11-21T16:18:27;11.50;99.90
8231;DHT22;4156;50.908;6.974;2023-11-21T16:20:52;11.60;99.90
8231;DHT22;4156;50.908;6.974;2023-11-21T16:23:18;11.60;99.90
8231;DHT22;4156;50.908;6.974;2023-11-21T16:25:44;11.60;99.90
8231;DHT22;4156;50.908;6.974;2023-11-21T16:28:09;11.60;99.90
8231;DHT22;4156;50.908;6.974;2023-11-21T16:30:35;11.60;99.90
8231;DHT22;4156;50.908;6.974;2023-11-21T16:33:03;11.60;99.90
8231;DHT22;4156;50.908;6.974;2023-11-21T16:35:29;11.60;99.90
8231;DHT22;4156;50.908;6.974;2023-11-21T16:37:55;11.60;99.90
8231;DHT22;4156;50.908;6.974;2023-11-21T16:40:21;11.50;99.90
8231;DHT22;4156;50.908;6.974;2023-11-21T16:42:47;11.50;99.90
8231;DHT22;4156;50.908;6.974;2023-11-21T16:45:12;11.50;99.90
8231;DHT22;4156;50.908;6.974;2023-11-21T16:47:38;11.50;99.90
8231;DHT22;4156;50.908;6.974;2023-11-21T16:50:07;11.50;99.90
8231;DHT22;4156;50.908;6.974;2023-11-21T16:52:34;11.50;99.90
8231;DHT22;4156;50.908;6.974;2023-11-21T16:54:59;11.50;99.90
8231;DHT22;4156;50.908;6.974;2023-11-21T16:57:25;11.60;99.90
8231;DHT22;4156;50.908;6.974;2023-11-21T16:59:50;11.60;99.90
8231;DHT22;4156;50.908;6.974;2023-11-21T17:02:19;11.50;99.90
8231;DHT22;4156;50.908;6.974;2023-11-21T17:04:45;11.50;99.90
8231;DHT22;4156;50.908;6.974;2023-11-21T17:07:17;11.50;99.90